Terminal Aerodrome Forecast
Issued by NWS Columbia, SC

Home | Current Version | Previous Version | Text Only | Print | Product List | Glossary On
Versions: 1 2 3 4 5 6 7 8 9 10 11 12 13 14 15 16 17 18 19 20 21 22 23 24 25 26 27 28 29 30 31 32 33 34 35 36 37 38 39 40 41 42 43 44 45 46 47
000
FTAK31 PAJN 282300
TAFAGS
TAF
PAGS 282330Z 2900/2924 30006KT P6SM -RA SCT005 OVC060
     FM290600 VRB04KT 5SM -RA BR SCT005 BKN015 OVC025
     FM291600 VRB03KT P6SM -RA FEW010 BKN015 OVC025
     FM292100 24005KT P6SM -RA BKN015 OVC030
      AMD NOT SKED=

USA.gov is the U.S. government's official web portal to all federal, state and local government web resources and services.